Time;durP1;ratioP1;P1;durP2;ratioP2;P2;SDS_P1;SDS_P2;PMS_P1;PMS_P2;Temp;Humidity;BMP_temperature;BMP_pressure;BME280_temperature;BME280_humidity;BME280_pressure;Samples;Min_cycle;Max_cycle;Signal;HPM_P1;HPM_P2
2022/08/25 00:01:11;;;;;;;12.30;5.43;;;19.70;99.90;;;;;;6093006;23;20029;-85
2022/08/25 00:03:37;;;;;;;10.38;6.70;;;19.70;99.90;;;;;;6118239;23;20022;-85
2022/08/25 00:06:05;;;;;;;9.05;6.28;;;19.70;99.90;;;;;;6117408;23;20013;-85
2022/08/25 00:08:30;;;;;;;11.38;6.03;;;19.60;99.90;;;;;;6093151;23;20064;-85
2022/08/25 00:10:56;;;;;;;19.85;5.80;;;19.60;99.90;;;;;;6118248;23;20018;-85
2022/08/25 00:13:22;;;;;;;8.93;5.93;;;19.60;99.90;;;;;;6091216;23;20572;-85
2022/08/25 00:15:47;;;;;;;9.10;5.70;;;19.60;99.90;;;;;;6093746;23;20018;-85
2022/08/25 00:18:13;;;;;;;11.35;6.40;;;19.50;99.90;;;;;;6093031;23;20021;-85
2022/08/25 00:20:39;;;;;;;10.00;5.57;;;19.50;99.90;;;;;;6116637;23;20064;-85
2022/08/25 00:23:04;;;;;;;9.43;5.25;;;19.50;99.90;;;;;;6093159;23;20026;-86
2022/08/25 00:25:31;;;;;;;8.00;5.43;;;19.40;99.90;;;;;;6092033;23;20075;-85
2022/08/25 00:27:57;;;;;;;8.23;5.00;;;19.40;99.90;;;;;;6117646;23;20032;-85
2022/08/25 00:30:23;;;;;;;13.40;5.15;;;19.40;99.90;;;;;;6116653;23;20371;-85
2022/08/25 00:32:49;;;;;;;10.90;5.25;;;19.40;99.90;;;;;;6117200;23;20017;-85
2022/08/25 00:35:15;;;;;;;8.70;5.38;;;19.40;99.90;;;;;;6092680;23;20021;-85
2022/08/25 00:37:41;;;;;;;9.63;5.13;;;19.30;99.90;;;;;;6117048;23;20033;-85
2022/08/25 00:40:07;;;;;;;13.52;4.75;;;19.30;99.90;;;;;;6092680;23;20087;-85
2022/08/25 00:42:33;;;;;;;13.85;4.85;;;19.30;99.90;;;;;;6092131;23;20021;-85
2022/08/25 00:44:59;;;;;;;9.90;4.95;;;19.30;99.90;;;;;;6118275;23;20100;-86
2022/08/25 00:47:24;;;;;;;8.90;4.50;;;19.20;99.90;;;;;;6115546;23;20022;-85
2022/08/25 00:49:56;;;;;;;9.75;4.43;;;19.20;99.90;;;;;;6093273;23;20018;-85
2022/08/25 00:52:28;;;;;;;6.70;4.18;;;19.20;99.90;;;;;;6117010;23;20022;-85
2022/08/25 00:54:57;;;;;;;9.75;4.50;;;19.20;99.90;;;;;;6117289;23;20018;-85
2022/08/25 00:57:29;;;;;;;8.60;3.70;;;19.20;99.90;;;;;;6116416;23;20096;-85
2022/08/25 00:59:56;;;;;;;7.90;4.07;;;19.20;99.90;;;;;;6118172;23;20014;-86
2022/08/25 01:02:22;;;;;;;5.60;3.22;;;19.20;99.90;;;;;;6115134;23;20022;-85
2022/08/25 01:04:48;;;;;;;7.70;3.47;;;19.30;99.90;;;;;;6117929;23;20045;-85
2022/08/25 01:07:17;;;;;;;12.18;3.60;;;19.30;99.90;;;;;;6092790;23;20045;-85
2022/08/25 01:09:44;;;;;;;9.07;3.40;;;19.30;99.90;;;;;;6116350;23;20153;-86
2022/08/25 01:12:10;;;;;;;10.43;3.50;;;19.30;99.90;;;;;;6092258;23;20053;-85
2022/08/25 01:14:36;;;;;;;9.38;3.55;;;19.30;99.90;;;;;;6116040;23;20085;-85
2022/08/25 01:17:03;;;;;;;13.30;3.70;;;19.40;99.90;;;;;;6117556;23;20292;-85
2022/08/25 01:19:32;;;;;;;10.50;3.55;;;19.40;99.90;;;;;;6117431;23;20025;-86
2022/08/25 01:21:59;;;;;;;9.93;3.20;;;19.40;99.90;;;;;;6092812;23;20053;-85
2022/08/25 01:24:37;;;;;;;8.60;3.20;;;19.40;99.90;;;;;;6092727;23;20028;-85
2022/08/25 01:27:04;;;;;;;7.65;3.30;;;19.40;99.90;;;;;;6116848;23;20410;-85
2022/08/25 01:29:31;;;;;;;10.27;3.88;;;19.40;99.90;;;;;;6116612;23;20021;-85
2022/08/25 01:32:00;;;;;;;10.88;3.40;;;19.40;99.90;;;;;;6117786;23;20018;-85
2022/08/25 01:34:30;;;;;;;8.35;3.22;;;19.50;99.90;;;;;;6116557;23;20017;-85
2022/08/25 01:36:58;;;;;;;12.23;3.38;;;19.40;99.90;;;;;;6092965;23;20018;-85
2022/08/25 01:39:25;;;;;;;8.35;3.42;;;19.40;99.90;;;;;;6092079;23;20010;-85
2022/08/25 01:42:18;;;;;;;6.30;3.08;;;19.40;99.90;;;;;;6093131;23;20026;-85
2022/08/25 01:44:46;;;;;;;9.27;3.45;;;19.40;99.90;;;;;;6116352;23;20024;-85
2022/08/25 01:47:13;;;;;;;13.00;3.50;;;19.40;99.90;;;;;;6118192;23;20489;-85
2022/08/25 01:49:39;;;;;;;9.15;3.65;;;19.40;99.90;;;;;;6118995;23;20022;-85
2022/08/25 01:52:15;;;;;;;9.27;3.42;;;19.40;99.90;;;;;;6118103;23;20406;-85
2022/08/25 01:54:41;;;;;;;7.95;2.90;;;19.40;99.90;;;;;;6118797;23;20442;-85
2022/08/25 01:57:08;;;;;;;7.97;3.97;;;19.30;99.90;;;;;;6093279;23;20076;-85
2022/08/25 01:59:34;;;;;;;8.38;3.90;;;19.30;99.90;;;;;;6094349;23;20010;-85
2022/08/25 02:01:59;;;;;;;6.82;3.20;;;19.30;99.90;;;;;;6094963;23;20029;-85
2022/08/25 02:04:28;;;;;;;16.67;3.55;;;19.20;99.90;;;;;;6117939;23;20487;-85
2022/08/25 02:06:53;;;;;;;8.05;3.55;;;19.20;99.90;;;;;;6094625;23;20017;-85
2022/08/25 02:09:19;;;;;;;5.80;3.30;;;19.20;99.90;;;;;;6094585;23;20022;-86
2022/08/25 02:11:46;;;;;;;9.02;3.67;;;19.20;99.90;;;;;;6117862;23;20092;-85
2022/08/25 02:14:14;;;;;;;9.10;3.97;;;19.20;99.90;;;;;;6094027;23;20018;-85
2022/08/25 02:16:43;;;;;;;8.75;3.05;;;19.10;99.90;;;;;;6093693;23;20022;-85
2022/08/25 02:19:11;;;;;;;9.52;3.53;;;19.10;99.90;;;;;;6093787;23;20018;-85
2022/08/25 02:21:38;;;;;;;13.80;3.80;;;19.10;99.90;;;;;;6094130;23;20054;-85
2022/08/25 02:24:05;;;;;;;11.80;3.50;;;19.10;99.90;;;;;;6095250;23;20093;-86
2022/08/25 02:26:31;;;;;;;11.10;3.72;;;19.00;99.90;;;;;;6093640;23;20084;-85
2022/08/25 02:28:57;;;;;;;8.20;3.78;;;19.00;99.90;;;;;;6094113;23;20073;-85
2022/08/25 02:31:24;;;;;;;9.82;3.55;;;19.00;99.90;;;;;;6118310;23;20018;-85
2022/08/25 02:33:50;;;;;;;7.25;3.67;;;19.00;99.90;;;;;;6093396;23;20025;-85
2022/08/25 02:36:17;;;;;;;15.63;3.55;;;19.00;99.90;;;;;;6094351;23;20014;-85
2022/08/25 02:38:44;;;;;;;14.25;3.20;;;19.00;99.90;;;;;;6093892;23;20097;-85
2022/08/25 02:41:13;;;;;;;12.02;3.20;;;18.90;99.90;;;;;;6118013;23;20020;-85
2022/08/25 02:43:41;;;;;;;7.78;3.35;;;18.90;99.90;;;;;;6117987;23;20097;-85
2022/08/25 02:46:08;;;;;;;6.32;3.45;;;18.90;99.90;;;;;;6117465;23;20462;-85
2022/08/25 02:48:33;;;;;;;10.38;3.47;;;19.00;99.90;;;;;;6094204;23;20328;-85
2022/08/25 02:51:01;;;;;;;12.40;3.88;;;18.90;99.90;;;;;;6118968;23;20029;-85
2022/08/25 02:53:28;;;;;;;9.32;3.15;;;18.90;99.90;;;;;;6117445;23;20439;-85
2022/08/25 02:55:54;;;;;;;12.68;3.25;;;18.80;99.90;;;;;;6118986;23;20057;-85
2022/08/25 02:58:20;;;;;;;8.50;2.90;;;18.90;99.90;;;;;;6117412;23;20017;-85
2022/08/25 03:00:46;;;;;;;9.02;3.60;;;18.80;99.90;;;;;;6092897;23;20435;-85
2022/08/25 03:03:12;;;;;;;10.27;3.55;;;18.80;99.90;;;;;;6118880;23;20097;-85
2022/08/25 03:05:38;;;;;;;10.32;3.20;;;18.80;99.90;;;;;;6118986;23;20382;-86
2022/08/25 03:08:05;;;;;;;8.88;3.60;;;18.80;99.90;;;;;;6092531;23;20378;-85
2022/08/25 03:10:31;;;;;;;8.63;3.22;;;18.80;99.90;;;;;;6092861;23;20121;-85
2022/08/25 03:12:57;;;;;;;9.60;3.50;;;18.80;99.90;;;;;;6093603;23;20047;-85
2022/08/25 03:15:24;;;;;;;10.85;3.40;;;18.80;99.90;;;;;;6092458;23;20072;-85
2022/08/25 03:17:51;;;;;;;9.23;3.20;;;18.70;99.90;;;;;;6094502;23;20076;-85
2022/08/25 03:20:17;;;;;;;7.45;3.53;;;18.70;99.90;;;;;;6118169;23;20395;-85
2022/08/25 03:22:43;;;;;;;9.73;3.10;;;18.70;99.90;;;;;;6117429;23;20061;-85
2022/08/25 03:27:54;;;;;;;6.90;2.80;;;18.60;99.90;;;;;;6117576;23;20037;-85
2022/08/25 03:30:20;;;;;;;9.95;3.28;;;18.50;99.90;;;;;;6092318;23;20049;-85
2022/08/25 03:32:46;;;;;;;6.68;3.75;;;18.50;99.90;;;;;;6093706;23;20316;-85
2022/08/25 03:35:11;;;;;;;8.35;3.22;;;18.50;99.90;;;;;;6093970;23;20018;-85
2022/08/25 03:37:37;;;;;;;15.57;3.20;;;18.40;99.90;;;;;;6093570;23;20132;-85
2022/08/25 03:40:06;;;;;;;7.97;3.80;;;18.50;99.90;;;;;;6093450;23;20191;-85
2022/08/25 03:42:32;;;;;;;7.95;3.63;;;18.50;99.90;;;;;;6092205;23;20347;-85
2022/08/25 03:44:58;;;;;;;9.77;3.95;;;18.50;99.90;;;;;;6093710;23;20018;-85
2022/08/25 03:47:25;;;;;;;12.52;3.35;;;18.50;99.90;;;;;;6117064;23;20049;-85
2022/08/25 03:49:51;;;;;;;12.85;3.22;;;18.40;99.90;;;;;;6117340;23;20093;-85
2022/08/25 03:52:17;;;;;;;10.15;3.72;;;18.40;99.90;;;;;;6117906;23;20481;-85
2022/08/25 03:54:43;;;;;;;8.70;3.72;;;18.40;99.90;;;;;;6093784;23;20018;-85
2022/08/25 03:57:09;;;;;;;10.10;3.25;;;18.40;99.90;;;;;;6112041;23;20018;-86
2022/08/25 03:59:37;;;;;;;12.18;3.50;;;18.40;99.90;;;;;;6093063;23;20049;-85
2022/08/25 04:02:04;;;;;;;6.28;3.10;;;18.30;99.90;;;;;;6092335;23;20050;-85
2022/08/25 04:04:30;;;;;;;6.55;3.28;;;18.30;99.90;;;;;;6092997;23;20164;-85
2022/08/25 04:06:57;;;;;;;11.80;3.90;;;18.30;99.90;;;;;;6117456;23;20025;-85
2022/08/25 04:09:23;;;;;;;14.30;4.40;;;18.30;99.90;;;;;;6093008;23;20018;-85
2022/08/25 04:11:49;;;;;;;9.32;3.85;;;18.30;99.90;;;;;;6117258;23;20519;-85
2022/08/25 04:14:15;;;;;;;11.63;3.55;;;18.30;99.90;;;;;;6092451;23;20101;-85
2022/08/25 04:16:41;;;;;;;7.13;3.83;;;18.30;99.90;;;;;;6117455;23;20061;-84
2022/08/25 04:19:08;;;;;;;11.27;3.75;;;18.30;99.90;;;;;;6116013;23;20025;-85
2022/08/25 04:21:34;;;;;;;6.28;3.92;;;18.30;99.90;;;;;;6093836;23;20017;-85
2022/08/25 04:24:00;;;;;;;8.95;4.10;;;18.20;99.90;;;;;;6118306;23;20046;-85
2022/08/25 04:26:31;;;;;;;8.23;4.07;;;18.20;99.90;;;;;;6091698;23;20104;-85
2022/08/25 04:28:58;;;;;;;9.95;4.22;;;18.20;99.90;;;;;;6118043;23;20026;-85
2022/08/25 04:31:25;;;;;;;8.55;4.47;;;18.20;99.90;;;;;;6116298;23;20450;-85
2022/08/25 04:33:51;;;;;;;13.20;4.47;;;18.10;99.90;;;;;;6117215;23;20041;-85
2022/08/25 04:36:18;;;;;;;8.85;4.53;;;18.10;99.90;;;;;;6092744;23;20029;-85
2022/08/25 04:38:46;;;;;;;10.18;4.00;;;18.00;99.90;;;;;;6116976;23;20109;-85
2022/08/25 04:41:13;;;;;;;6.72;4.15;;;18.00;99.90;;;;;;6117233;23;20327;-85
2022/08/25 04:43:40;;;;;;;7.35;4.63;;;17.90;99.90;;;;;;6117138;23;20022;-85
2022/08/25 04:46:09;;;;;;;9.18;4.30;;;17.90;99.90;;;;;;6115902;23;20014;-84
2022/08/25 04:48:35;;;;;;;9.95;4.53;;;17.90;99.90;;;;;;6093406;23;20176;-85
2022/08/25 04:51:06;;;;;;;15.25;5.13;;;17.80;99.90;;;;;;6093504;23;20061;-85
2022/08/25 04:53:33;;;;;;;9.63;4.40;;;17.80;99.90;;;;;;6092233;23;20017;-85
2022/08/25 04:55:59;;;;;;;15.65;4.90;;;17.80;99.90;;;;;;6118065;23;20040;-85
2022/08/25 04:58:25;;;;;;;12.75;5.32;;;17.80;99.90;;;;;;6091816;23;20045;-85
2022/08/25 05:00:51;;;;;;;9.93;4.88;;;17.80;99.90;;;;;;6116526;23;20241;-85
2022/08/25 05:03:17;;;;;;;12.50;4.43;;;17.80;99.90;;;;;;6117160;23;20343;-84
2022/08/25 05:05:42;;;;;;;10.40;5.13;;;17.70;99.90;;;;;;6117013;23;20022;-85
2022/08/25 05:08:09;;;;;;;8.13;4.65;;;17.70;99.90;;;;;;6114939;23;20021;-85
2022/08/25 05:10:39;;;;;;;9.98;4.97;;;17.80;99.90;;;;;;6115655;23;20022;-85
2022/08/25 05:13:05;;;;;;;11.25;5.13;;;17.70;99.90;;;;;;6091388;23;20022;-84
2022/08/25 05:15:48;;;;;;;10.75;5.20;;;17.80;99.90;;;;;;6114277;23;20654;-85
2022/08/25 05:18:17;;;;;;;9.77;5.00;;;17.80;99.90;;;;;;6091434;23;20022;-85
2022/08/25 05:20:42;;;;;;;11.00;4.95;;;17.80;99.90;;;;;;6115479;23;20049;-85
2022/08/25 05:23:08;;;;;;;11.38;4.82;;;17.90;99.90;;;;;;6090460;23;20022;-85
2022/08/25 05:25:34;;;;;;;13.45;5.20;;;17.90;99.90;;;;;;6116023;23;20025;-85
2022/08/25 05:28:00;;;;;;;10.18;5.07;;;17.90;99.90;;;;;;6090150;23;20018;-85
2022/08/25 05:30:27;;;;;;;11.10;5.30;;;18.00;99.90;;;;;;6117058;23;20077;-85
2022/08/25 05:32:52;;;;;;;11.40;5.32;;;18.00;99.90;;;;;;6117522;23;20462;-85
2022/08/25 05:35:19;;;;;;;12.32;4.68;;;18.10;99.90;;;;;;6090478;23;20014;-85
2022/08/25 05:37:45;;;;;;;14.10;4.85;;;18.20;99.90;;;;;;6093188;23;20026;-85
2022/08/25 05:40:11;;;;;;;11.18;5.45;;;18.30;99.90;;;;;;6092219;23;20121;-85
2022/08/25 05:42:36;;;;;;;11.77;5.07;;;18.30;99.90;;;;;;6116016;23;20164;-86
2022/08/25 05:45:04;;;;;;;11.63;5.30;;;18.40;99.90;;;;;;6117793;23;20018;-84
2022/08/25 05:47:30;;;;;;;11.90;5.03;;;18.50;99.90;;;;;;6091681;23;20370;-85
2022/08/25 05:49:56;;;;;;;9.75;5.28;;;18.60;99.90;;;;;;6092699;23;20053;-85
2022/08/25 05:52:21;;;;;;;8.93;5.32;;;18.60;99.90;;;;;;6116124;23;20068;-85
2022/08/25 05:54:47;;;;;;;15.57;5.20;;;18.80;99.90;;;;;;6117748;23;20174;-85
2022/08/25 05:57:13;;;;;;;15.02;5.25;;;18.90;99.90;;;;;;6091058;23;20351;-85
2022/08/25 05:59:39;;;;;;;14.65;5.38;;;19.00;99.90;;;;;;6093115;23;20022;-84
2022/08/25 06:04:49;;;;;;;10.20;5.00;;;19.20;99.90;;;;;;6116774;23;20054;-85
2022/08/25 06:07:14;;;;;;;11.07;6.07;;;19.30;99.90;;;;;;6116488;23;20025;-85
2022/08/25 06:09:40;;;;;;;10.82;4.85;;;19.40;99.90;;;;;;6117162;23;20506;-85
2022/08/25 06:12:07;;;;;;;14.77;5.15;;;19.60;99.90;;;;;;6115307;23;20026;-85
2022/08/25 06:14:33;;;;;;;14.40;5.28;;;19.70;99.90;;;;;;6093298;23;20329;-85
2022/08/25 06:17:00;;;;;;;9.25;4.80;;;19.70;99.90;;;;;;6116843;23;20073;-85
2022/08/25 06:19:26;;;;;;;9.85;5.18;;;19.80;99.90;;;;;;6092639;23;20016;-85
2022/08/25 06:21:54;;;;;;;10.85;5.50;;;19.90;99.90;;;;;;6093499;23;20351;-85
2022/08/25 06:24:20;;;;;;;14.40;5.80;;;20.10;99.90;;;;;;6091802;23;20029;-85
2022/08/25 06:26:45;;;;;;;10.45;5.43;;;20.10;99.90;;;;;;6117798;23;20354;-85
2022/08/25 06:29:12;;;;;;;10.60;5.00;;;20.20;99.90;;;;;;6116604;23;20036;-84
2022/08/25 06:31:38;;;;;;;11.85;5.63;;;20.30;99.90;;;;;;6091627;23;20042;-84
2022/08/25 06:34:05;;;;;;;12.43;5.53;;;20.40;99.90;;;;;;6094185;23;20018;-87
2022/08/25 06:36:31;;;;;;;14.48;5.72;;;20.50;99.90;;;;;;6094043;23;20037;-88
2022/08/25 06:38:57;;;;;;;13.30;5.32;;;20.50;99.90;;;;;;6094724;23;20114;-88
2022/08/25 06:41:24;;;;;;;10.48;5.18;;;20.50;99.90;;;;;;6092511;23;20053;-86
2022/08/25 06:43:50;;;;;;;16.55;5.00;;;20.60;99.90;;;;;;6119276;23;20311;-87
2022/08/25 06:46:20;;;;;;;10.60;5.68;;;20.70;99.90;;;;;;6117957;23;20022;-87
2022/08/25 06:48:46;;;;;;;14.32;5.75;;;20.80;99.90;;;;;;6094813;23;20021;-87
2022/08/25 06:51:15;;;;;;;9.68;5.18;;;20.80;99.90;;;;;;6095108;23;20518;-88
2022/08/25 06:53:42;;;;;;;10.75;4.63;;;20.90;99.90;;;;;;6093799;23;20201;-87
2022/08/25 06:56:09;;;;;;;9.90;5.25;;;21.00;99.90;;;;;;6094570;23;20104;-87
2022/08/25 06:58:34;;;;;;;8.20;5.10;;;21.00;99.90;;;;;;6093687;23;20013;-87
2022/08/25 07:01:16;;;;;;;12.02;5.35;;;21.10;99.90;;;;;;6118722;23;20029;-88
2022/08/25 07:03:42;;;;;;;12.18;5.13;;;21.20;99.90;;;;;;6096015;23;20367;-88
2022/08/25 07:06:08;;;;;;;11.05;5.15;;;21.30;99.90;;;;;;6095307;23;20450;-87
2022/08/25 07:08:34;;;;;;;11.90;4.70;;;21.40;99.90;;;;;;6093971;23;20080;-88
2022/08/25 07:11:05;;;;;;;13.50;5.53;;;21.50;99.90;;;;;;6071602;23;20443;-90
2022/08/25 07:13:31;;;;;;;10.20;5.38;;;21.60;99.90;;;;;;6071210;23;20022;-91
2022/08/25 07:15:57;;;;;;;9.50;5.05;;;21.70;99.90;;;;;;6071795;23;20018;-87
2022/08/25 07:18:23;;;;;;;13.15;5.15;;;21.80;99.90;;;;;;6069635;23;20455;-87
2022/08/25 07:20:50;;;;;;;9.95;4.82;;;21.90;99.90;;;;;;6070287;23;20018;-87
2022/08/25 07:23:17;;;;;;;11.88;5.20;;;22.00;99.90;;;;;;6093903;23;20021;-87
2022/08/25 07:25:43;;;;;;;10.75;5.03;;;22.10;99.90;;;;;;6094697;23;20342;-87
2022/08/25 07:28:09;;;;;;;9.65;4.90;;;22.20;99.90;;;;;;6093210;23;20101;-86
2022/08/25 07:30:34;;;;;;;11.23;4.95;;;22.30;99.90;;;;;;6069846;23;20037;-87
2022/08/25 07:33:00;;;;;;;11.45;4.43;;;22.40;99.90;;;;;;6070070;23;20058;-86
2022/08/25 07:35:26;;;;;;;12.45;4.88;;;22.50;99.90;;;;;;6068349;23;20462;-85
2022/08/25 07:37:55;;;;;;;15.05;4.63;;;22.60;99.90;;;;;;6070542;23;20032;-85
2022/08/25 07:40:25;;;;;;;12.73;4.75;;;22.70;99.90;;;;;;6069677;23;20336;-85
2022/08/25 07:42:54;;;;;;;12.48;4.45;;;22.70;99.90;;;;;;6093132;23;20018;-86
2022/08/25 07:45:28;;;;;;;9.07;4.50;;;22.80;99.90;;;;;;6068768;23;20470;-85
2022/08/25 07:47:54;;;;;;;10.70;4.38;;;22.90;99.90;;;;;;6094385;23;20072;-85
2022/08/25 07:50:20;;;;;;;11.27;4.47;;;23.00;99.90;;;;;;6092394;23;20025;-86
2022/08/25 07:52:46;;;;;;;8.60;4.10;;;23.20;99.90;;;;;;6094377;23;20084;-86
2022/08/25 07:55:12;;;;;;;9.77;4.05;;;23.30;99.90;;;;;;6069841;23;20104;-85
2022/08/25 07:57:39;;;;;;;12.57;4.32;;;23.40;99.90;;;;;;6068627;23;20053;-87
2022/08/25 08:00:06;;;;;;;11.00;3.65;;;23.50;99.90;;;;;;6070280;23;20386;-86
2022/08/25 08:02:32;;;;;;;9.82;4.47;;;23.60;99.90;;;;;;6091868;23;20025;-87
2022/08/25 08:04:58;;;;;;;9.38;3.60;;;23.80;99.90;;;;;;6070671;23;20021;-86
2022/08/25 08:07:25;;;;;;;10.20;3.92;;;23.80;99.90;;;;;;6068800;23;20018;-86
2022/08/25 08:09:51;;;;;;;11.18;4.63;;;23.90;99.90;;;;;;6108762;23;20450;-85
2022/08/25 08:12:17;;;;;;;9.60;3.50;;;24.00;99.90;;;;;;6092882;23;20022;-86
2022/08/25 08:14:44;;;;;;;10.43;4.15;;;24.10;99.90;;;;;;6093891;23;20091;-86
2022/08/25 08:17:10;;;;;;;9.95;3.85;;;24.20;99.90;;;;;;6116680;23;20018;-85
2022/08/25 08:19:36;;;;;;;10.63;3.53;;;24.30;99.90;;;;;;6117815;23;20077;-85
2022/08/25 08:22:04;;;;;;;15.63;3.78;;;24.50;99.90;;;;;;6094092;23;20026;-86
2022/08/25 08:24:31;;;;;;;12.43;3.35;;;24.60;99.90;;;;;;6092271;23;20093;-86
2022/08/25 08:26:57;;;;;;;8.63;2.88;;;24.60;99.90;;;;;;6117798;23;20014;-86
2022/08/25 08:29:23;;;;;;;9.30;3.47;;;24.80;99.90;;;;;;6093781;23;20029;-86
2022/08/25 08:31:49;;;;;;;8.02;3.50;;;24.80;99.90;;;;;;6117022;23;20048;-86
2022/08/25 08:34:15;;;;;;;10.57;3.65;;;24.90;99.90;;;;;;6117584;23;20025;-86
2022/08/25 08:36:41;;;;;;;10.55;3.60;;;25.00;99.90;;;;;;6092875;23;20018;-86
2022/08/25 08:39:08;;;;;;;11.85;3.53;;;25.10;99.90;;;;;;6092456;23;20161;-86
2022/08/25 08:44:43;;;;;;;17.73;3.80;;;25.40;99.90;;;;;;6118043;23;20033;-87
2022/08/25 08:47:10;;;;;;;12.10;3.03;;;25.40;99.90;;;;;;6092709;23;20108;-87
2022/08/25 08:49:48;;;;;;;6.82;3.20;;;25.50;99.90;;;;;;6117986;23;20026;-84
2022/08/25 08:52:17;;;;;;;7.78;3.38;;;25.50;99.90;;;;;;6092209;23;20018;-84
2022/08/25 08:54:46;;;;;;;10.48;3.13;;;25.60;99.90;;;;;;6117285;23;20120;-85
2022/08/25 08:57:19;;;;;;;10.38;3.20;;;25.70;99.90;;;;;;6116569;23;20085;-85
2022/08/25 08:59:53;;;;;;;9.75;3.35;;;25.80;99.90;;;;;;6092398;23;20041;-85
2022/08/25 09:02:38;;;;;;;8.27;3.25;;;25.80;99.90;;;;;;6116297;23;20021;-84
2022/08/25 09:05:09;;;;;;;9.63;2.95;;;25.90;99.90;;;;;;6117349;23;20021;-84
2022/08/25 09:07:45;;;;;;;15.60;3.38;;;26.00;99.90;;;;;;6116261;23;20057;-84
2022/08/25 09:10:11;;;;;;;11.35;3.08;;;26.10;99.90;;;;;;6093944;23;20018;-84
2022/08/25 09:12:44;;;;;;;11.25;2.97;;;26.10;99.90;;;;;;6116670;23;20351;-84
2022/08/25 09:15:21;;;;;;;12.90;3.40;;;26.20;99.90;;;;;;6092486;23;20076;-84
2022/08/25 09:17:53;;;;;;;7.03;2.95;;;26.30;99.90;;;;;;6117605;23;20029;-84
2022/08/25 09:20:37;;;;;;;9.68;2.78;;;26.50;99.90;;;;;;6091741;23;20022;-84
2022/08/25 09:23:32;;;;;;;10.23;3.05;;;26.60;99.90;;;;;;6092582;23;20025;-85
2022/08/25 09:26:14;;;;;;;13.23;3.10;;;26.70;99.90;;;;;;6093613;23;20049;-85
2022/08/25 09:28:50;;;;;;;10.13;2.72;;;26.70;99.90;;;;;;6116808;23;20459;-84
2022/08/25 09:31:22;;;;;;;8.98;3.13;;;26.70;99.90;;;;;;6116702;23;20072;-84
2022/08/25 09:33:52;;;;;;;6.53;2.75;;;26.80;99.90;;;;;;6093002;23;20018;-84
2022/08/25 09:36:18;;;;;;;9.18;2.75;;;26.90;99.90;;;;;;6118099;23;20021;-85
2022/08/25 09:38:44;;;;;;;8.73;3.03;;;27.00;99.90;;;;;;6117576;23;20064;-85
2022/08/25 09:41:14;;;;;;;9.57;2.83;;;27.00;99.90;;;;;;6116971;23;20018;-84
2022/08/25 09:43:43;;;;;;;20.73;3.10;;;27.00;99.90;;;;;;6093094;23;20026;-84
2022/08/25 09:46:13;;;;;;;9.32;2.58;;;27.10;99.90;;;;;;6092724;23;20320;-84
2022/08/25 09:48:45;;;;;;;10.77;2.65;;;27.20;99.90;;;;;;6091648;23;20365;-84
2022/08/25 09:51:28;;;;;;;9.52;2.63;;;27.30;99.90;;;;;;6117712;23;20402;-85
2022/08/25 09:54:11;;;;;;;9.43;2.72;;;27.30;99.90;;;;;;6093335;23;20018;-84
2022/08/25 09:56:47;;;;;;;;;;;27.30;99.90;;;;;;6116922;23;20018;-85
2022/08/25 09:59:21;;;;;;;7.95;2.40;;;27.40;99.90;;;;;;6116852;23;19948;-85
2022/08/25 10:01:50;;;;;;;10.05;2.47;;;27.50;99.90;;;;;;6092190;23;20022;-84
2022/08/25 10:04:32;;;;;;;8.20;2.08;;;27.50;99.90;;;;;;6092280;23;20029;-90
2022/08/25 10:07:01;;;;;;;7.65;2.42;;;27.60;99.90;;;;;;6093634;23;20168;-84
2022/08/25 10:09:33;;;;;;;10.73;2.33;;;27.60;99.90;;;;;;6117283;23;20179;-85
2022/08/25 10:12:03;;;;;;;11.95;2.22;;;27.70;99.90;;;;;;6118993;23;20025;-85
2022/08/25 10:14:31;;;;;;;5.00;1.88;;;27.70;99.90;;;;;;6119448;23;20022;-85
2022/08/25 10:17:23;;;;;;;5.30;1.90;;;27.80;99.90;;;;;;6093693;23;20053;-84
2022/08/25 10:19:52;;;;;;;8.45;2.00;;;27.80;99.90;;;;;;6094951;23;20045;-84
2022/08/25 10:22:25;;;;;;;10.07;1.80;;;27.90;99.90;;;;;;6094444;23;20018;-84
2022/08/25 10:24:51;;;;;;;11.00;2.45;;;27.90;99.90;;;;;;6094213;23;20029;-84
2022/08/25 10:27:26;;;;;;;10.07;2.45;;;27.90;99.90;;;;;;6093959;23;20069;-84
2022/08/25 10:29:57;;;;;;;7.35;2.88;;;28.00;99.90;;;;;;6119794;23;20030;-84
2022/08/25 10:32:46;;;;;;;6.65;2.10;;;28.10;99.90;;;;;;6092259;23;20326;-85
2022/08/25 10:35:19;;;;;;;8.15;2.13;;;28.20;99.90;;;;;;6094636;23;20096;-83
2022/08/25 10:37:51;;;;;;;;;;;28.30;99.90;;;;;;6094381;23;20057;-84
2022/08/25 10:40:27;;;;;;;19.38;2.40;;;28.30;99.90;;;;;;6094783;23;19923;-84
2022/08/25 10:43:06;;;;;;;7.45;2.42;;;28.30;99.90;;;;;;6119027;23;20061;-84
2022/08/25 10:45:43;;;;;;;8.70;1.90;;;28.40;99.90;;;;;;6092815;23;20600;-84
2022/08/25 10:48:40;;;;;;;11.80;2.22;;;28.50;99.90;;;;;;6118730;23;20084;-85
2022/08/25 10:51:20;;;;;;;9.65;2.00;;;28.50;99.90;;;;;;6118918;23;20408;-85
2022/08/25 10:54:16;;;;;;;13.15;2.30;;;28.60;99.90;;;;;;6094680;23;20014;-87
2022/08/25 10:56:51;;;;;;;11.40;2.72;;;28.60;99.90;;;;;;6117950;23;20033;-87
2022/08/25 10:59:25;;;;;;;7.55;1.88;;;28.70;99.90;;;;;;6092778;23;20404;-85
2022/08/25 11:02:05;;;;;;;11.77;2.00;;;28.70;99.90;;;;;;6094067;23;20014;-85
2022/08/25 11:04:36;;;;;;;6.53;1.95;;;28.70;99.90;;;;;;6094436;23;20439;-85
2022/08/25 11:07:07;;;;;;;10.25;2.45;;;28.70;99.90;;;;;;6117328;23;20021;-85
2022/08/25 11:09:39;;;;;;;6.88;2.35;;;28.80;99.90;;;;;;6094378;23;20490;-85
2022/08/25 11:12:12;;;;;;;8.48;2.20;;;28.80;99.70;;;;;;6117687;23;20018;-85
2022/08/25 11:14:47;;;;;;;6.25;1.98;;;28.80;98.60;;;;;;6093199;23;20096;-84
2022/08/25 11:17:17;;;;;;;8.05;1.95;;;28.90;99.20;;;;;;6093459;23;20324;-86
2022/08/25 11:19:47;;;;;;;14.55;2.38;;;28.90;99.30;;;;;;6092661;23;20037;-85
2022/08/25 11:22:31;;;;;;;8.48;1.95;;;29.00;99.30;;;;;;6094039;23;20093;-85
2022/08/25 11:25:10;;;;;;;10.65;2.78;;;28.90;99.10;;;;;;6118975;23;20060;-84
2022/08/25 11:27:49;;;;;;;11.95;2.35;;;29.00;99.00;;;;;;6092849;23;20018;-85
2022/08/25 11:30:17;;;;;;;8.23;2.20;;;29.00;98.30;;;;;;6093815;23;20025;-85
2022/08/25 11:32:47;;;;;;;6.00;2.20;;;29.00;98.90;;;;;;6118118;23;20539;-85
2022/08/25 11:35:16;;;;;;;7.68;2.10;;;29.10;99.20;;;;;;6117645;23;20025;-84
2022/08/25 11:37:59;;;;;;;13.32;2.38;;;29.10;98.90;;;;;;6117825;23;20026;-86
2022/08/25 11:40:40;;;;;;;12.10;2.22;;;29.20;98.10;;;;;;6117470;23;20025;-85
2022/08/25 11:43:21;;;;;;;6.53;1.95;;;29.20;98.10;;;;;;6117739;23;20022;-85
2022/08/25 11:45:56;;;;;;;5.35;2.10;;;29.20;97.60;;;;;;6093547;23;20018;-85
2022/08/25 11:48:41;;;;;;;10.63;2.30;;;29.30;96.90;;;;;;6092683;23;20736;-86
2022/08/25 11:51:09;;;;;;;9.95;2.33;;;29.30;96.40;;;;;;6118108;23;20097;-85
2022/08/25 11:53:40;;;;;;;9.50;2.10;;;29.30;96.20;;;;;;6094123;23;20018;-86
2022/08/25 11:56:12;;;;;;;7.82;2.05;;;29.40;96.10;;;;;;6092650;23;20022;-85
2022/08/25 11:58:49;;;;;;;7.30;1.50;;;29.40;95.00;;;;;;6093501;23;20041;-85
2022/08/25 12:01:31;;;;;;;14.85;1.80;;;29.40;94.60;;;;;;6093489;23;20412;-85
2022/08/25 12:04:12;;;;;;;;;;;29.40;94.30;;;;;;6093771;23;20025;-85
2022/08/25 12:07:15;;;;;;;12.73;1.98;;;29.40;94.00;;;;;;6094227;23;19916;-86
2022/08/25 12:09:47;;;;;;;;;;;29.50;94.60;;;;;;6093109;23;20076;-85
2022/08/25 12:12:31;;;;;;;6.93;1.88;;;29.50;94.70;;;;;;6092971;23;19920;-85
2022/08/25 12:15:23;;;;;;;7.93;2.10;;;29.50;93.30;;;;;;6118498;23;20100;-85
2022/08/25 12:18:16;;;;;;;5.75;1.90;;;29.60;92.30;;;;;;6092822;23;20064;-85
2022/08/25 12:20:52;;;;;;;10.52;2.10;;;29.50;91.80;;;;;;6093920;23;20450;-85
2022/08/25 12:23:28;;;;;;;7.95;1.83;;;29.50;91.60;;;;;;6092629;23;20599;-86
2022/08/25 12:25:57;;;;;;;4.25;1.70;;;29.50;91.30;;;;;;6093527;23;20077;-85
2022/08/25 12:28:36;;;;;;;9.27;1.80;;;29.50;91.50;;;;;;6092860;23;20077;-85
2022/08/25 12:31:15;;;;;;;9.68;1.80;;;29.50;91.50;;;;;;6092214;23;20459;-86
2022/08/25 12:33:55;;;;;;;7.22;1.85;;;29.50;91.20;;;;;;6094228;23;20014;-86
2022/08/25 12:36:30;;;;;;;9.50;2.28;;;29.50;91.40;;;;;;6117776;23;20022;-86
2022/08/25 12:39:13;;;;;;;6.40;2.00;;;29.50;90.60;;;;;;6092650;23;20014;-86
2022/08/25 12:41:53;;;;;;;4.90;1.58;;;29.50;90.90;;;;;;6117606;23;20343;-86
2022/08/25 12:44:38;;;;;;;8.55;1.73;;;29.50;90.10;;;;;;6091931;23;20018;-85
2022/08/25 12:47:27;;;;;;;10.20;2.20;;;29.60;90.30;;;;;;6092569;23;20080;-87
2022/08/25 12:50:31;;;;;;;5.53;1.63;;;29.60;90.00;;;;;;6118538;23;20351;-86
2022/08/25 12:53:12;;;;;;;8.75;2.00;;;29.60;89.10;;;;;;6092633;23;20108;-86
2022/08/25 12:55:45;;;;;;;8.18;1.95;;;29.50;88.20;;;;;;6093130;23;20053;-85
2022/08/25 12:58:11;;;;;;;;;;;29.50;88.30;;;;;;6092720;23;20029;-85
2022/08/25 13:00:45;;;;;;;6.72;1.63;;;29.50;89.60;;;;;;6117559;23;19921;-86
2022/08/25 13:03:27;;;;;;;6.10;1.70;;;29.50;87.60;;;;;;6093243;23;20028;-86
2022/08/25 13:06:12;;;;;;;7.80;1.90;;;29.50;88.30;;;;;;6093360;23;20030;-86